Time;durP1;ratioP1;P1;durP2;ratioP2;P2;SDS_P1;SDS_P2;PMS_P1;PMS_P2;Temp;Humidity;BMP_temperature;BMP_pressure;BME280_temperature;BME280_humidity;BME280_pressure;Samples;Min_cycle;Max_cycle;Signal;HPM_P1;HPM_P2
2022/07/15 00:02:25;;;;;;;11.98;4.00;;;24.30;62.30;;;;;;5094306;28;20066;-67
2022/07/15 00:05:29;;;;;;;12.43;4.65;;;24.40;62.10;;;;;;5094189;28;20043;-67
2022/07/15 00:08:33;;;;;;;13.13;4.80;;;24.40;62.20;;;;;;5093643;28;20055;-68
2022/07/15 00:11:37;;;;;;;16.88;4.15;;;24.20;62.30;;;;;;5093816;28;20031;-66
2022/07/15 00:14:41;;;;;;;12.93;4.50;;;24.10;62.60;;;;;;5093868;28;20047;-67
2022/07/15 00:17:45;;;;;;;13.80;5.10;;;24.10;62.80;;;;;;5093823;28;20047;-67
2022/07/15 00:20:49;;;;;;;11.77;4.70;;;24.00;62.90;;;;;;5093685;28;20043;-67
2022/07/15 00:23:53;;;;;;;6.90;4.57;;;24.00;63.10;;;;;;5093357;28;20047;-67
2022/07/15 00:26:57;;;;;;;7.25;4.28;;;24.10;63.30;;;;;;5093491;28;20055;-67
2022/07/15 00:30:01;;;;;;;6.32;3.97;;;24.10;63.00;;;;;;5093653;28;20585;-67
2022/07/15 00:33:05;;;;;;;11.90;4.40;;;24.20;62.50;;;;;;5093163;28;20051;-67
2022/07/15 00:36:09;;;;;;;7.40;4.13;;;24.20;63.00;;;;;;5093598;28;20039;-67
2022/07/15 00:39:14;;;;;;;7.40;4.20;;;24.20;62.90;;;;;;5093121;28;20058;-67
2022/07/15 00:45:41;;;;;;;9.13;4.38;;;24.30;62.90;;;;;;5093164;28;20134;-67
2022/07/15 00:48:45;;;;;;;9.57;4.03;;;24.20;62.90;;;;;;5092839;28;20421;-67
2022/07/15 00:51:51;;;;;;;12.75;4.65;;;24.20;63.60;;;;;;5092489;28;20043;-67
2022/07/15 00:54:58;;;;;;;9.80;4.72;;;24.10;63.90;;;;;;5092718;28;20043;-67
2022/07/15 00:58:05;;;;;;;8.15;4.70;;;24.10;64.10;;;;;;5092091;28;20055;-67
2022/07/15 01:01:10;;;;;;;11.45;4.80;;;24.10;63.60;;;;;;5092875;28;20233;-67
2022/07/15 01:04:16;;;;;;;9.20;4.70;;;24.10;63.60;;;;;;5092962;28;20391;-67
2022/07/15 01:07:20;;;;;;;12.27;4.43;;;24.10;64.00;;;;;;5091863;28;20522;-67
2022/07/15 01:10:25;;;;;;;13.07;4.95;;;23.90;63.80;;;;;;5092033;28;20043;-67
2022/07/15 01:13:29;;;;;;;12.85;4.78;;;24.00;64.10;;;;;;5091740;28;20043;-67
2022/07/15 01:16:32;;;;;;;8.95;4.88;;;24.00;63.60;;;;;;5091863;28;20039;-67
2022/07/15 01:19:37;;;;;;;7.55;4.63;;;24.10;63.60;;;;;;5091609;28;20500;-67
2022/07/15 01:22:42;;;;;;;9.18;5.07;;;24.00;63.20;;;;;;5091676;28;20035;-67
2022/07/15 01:25:46;;;;;;;8.43;4.72;;;23.80;63.20;;;;;;5091853;28;20051;-67
2022/07/15 01:28:51;;;;;;;12.68;4.88;;;23.90;63.30;;;;;;5091400;28;20047;-66
2022/07/15 01:31:59;;;;;;;10.80;4.97;;;24.00;62.80;;;;;;5091325;28;20043;-66
2022/07/15 01:35:06;;;;;;;6.95;4.68;;;23.90;62.60;;;;;;5091569;28;20046;-67
2022/07/15 01:38:13;;;;;;;6.60;4.07;;;23.90;61.60;;;;;;5079652;28;20066;-66
2022/07/15 01:41:17;;;;;;;8.10;4.40;;;23.90;61.30;;;;;;5091512;28;20039;-67
2022/07/15 01:44:21;;;;;;;5.05;3.83;;;23.90;61.00;;;;;;5079776;28;20051;-67
2022/07/15 01:47:26;;;;;;;8.55;4.50;;;24.00;60.50;;;;;;5091780;28;20055;-67
2022/07/15 01:50:31;;;;;;;5.65;3.92;;;24.00;60.40;;;;;;5090975;28;20059;-67
2022/07/15 01:53:36;;;;;;;12.23;4.63;;;24.00;60.70;;;;;;5091195;28;20047;-67
2022/07/15 01:56:40;;;;;;;10.43;4.40;;;24.00;60.90;;;;;;5091012;28;20067;-67
2022/07/15 01:59:46;;;;;;;8.02;4.20;;;24.00;61.90;;;;;;5090786;28;20035;-67
2022/07/15 02:02:54;;;;;;;10.00;4.60;;;23.90;62.10;;;;;;5090315;28;20060;-67
2022/07/15 02:06:00;;;;;;;7.28;4.38;;;23.80;62.80;;;;;;5090419;28;20058;-67
2022/07/15 02:09:06;;;;;;;11.07;4.18;;;23.70;62.40;;;;;;5090552;28;20070;-67
2022/07/15 02:12:14;;;;;;;10.00;4.70;;;23.70;62.50;;;;;;5090858;28;20051;-67
2022/07/15 02:15:24;;;;;;;8.30;4.60;;;23.70;64.00;;;;;;5090567;28;20042;-67
2022/07/15 02:18:33;;;;;;;9.27;4.40;;;23.60;64.20;;;;;;5090745;28;20055;-67
2022/07/15 02:21:37;;;;;;;13.88;5.28;;;23.60;64.10;;;;;;5090815;28;20511;-68
2022/07/15 02:24:42;;;;;;;8.65;4.32;;;23.60;64.80;;;;;;5078931;28;20043;-68
2022/07/15 02:27:46;;;;;;;9.73;4.82;;;23.60;65.00;;;;;;5090275;28;20047;-68
2022/07/15 02:30:50;;;;;;;12.23;4.75;;;23.60;66.10;;;;;;5091163;28;20051;-67
2022/07/15 02:33:54;;;;;;;4.88;4.38;;;23.60;65.90;;;;;;5090315;28;20043;-67
2022/07/15 02:36:58;;;;;;;8.05;5.05;;;23.50;65.80;;;;;;5091152;28;20043;-67
2022/07/15 02:40:03;;;;;;;12.02;4.80;;;23.50;65.80;;;;;;5090502;28;20051;-67
2022/07/15 02:43:09;;;;;;;12.23;5.30;;;23.40;66.30;;;;;;5091024;28;20503;-67
2022/07/15 02:46:14;;;;;;;13.43;5.10;;;23.30;66.50;;;;;;5090201;28;20047;-67
2022/07/15 02:49:18;;;;;;;12.10;5.20;;;23.20;66.50;;;;;;5090228;28;20035;-67
2022/07/15 02:52:22;;;;;;;10.02;5.18;;;23.10;67.00;;;;;;5090419;28;20043;-67
2022/07/15 02:55:29;;;;;;;13.95;5.07;;;23.10;67.20;;;;;;5090422;28;20063;-67
2022/07/15 02:58:33;;;;;;;14.05;5.07;;;23.10;67.40;;;;;;5091165;28;20047;-66
2022/07/15 03:01:37;;;;;;;8.48;4.75;;;23.10;67.70;;;;;;5090158;28;20039;-66
2022/07/15 03:04:42;;;;;;;9.38;4.75;;;23.10;67.30;;;;;;5089994;28;20106;-66
2022/07/15 03:07:46;;;;;;;12.40;5.28;;;23.20;67.50;;;;;;5089968;28;20055;-67
2022/07/15 03:10:54;;;;;;;7.97;4.45;;;23.30;67.60;;;;;;5089884;28;20047;-67
2022/07/15 03:13:59;;;;;;;12.10;4.68;;;23.30;67.40;;;;;;5089968;28;20039;-67
2022/07/15 03:17:02;;;;;;;13.13;4.85;;;23.20;67.80;;;;;;5093394;28;20506;-67
2022/07/15 03:20:09;;;;;;;8.45;5.07;;;23.10;67.70;;;;;;5094124;28;20047;-67
2022/07/15 03:23:17;;;;;;;8.05;4.78;;;23.00;67.90;;;;;;5094093;28;20648;-67
2022/07/15 03:26:22;;;;;;;11.30;4.93;;;23.10;68.50;;;;;;5093887;28;20063;-67
2022/07/15 03:29:28;;;;;;;12.65;5.88;;;23.10;68.00;;;;;;5093895;28;20089;-67
2022/07/15 03:32:33;;;;;;;14.00;5.25;;;22.90;69.20;;;;;;5093692;28;20039;-67
2022/07/15 03:35:37;;;;;;;10.55;5.40;;;22.90;69.20;;;;;;5094462;28;20047;-67
2022/07/15 03:38:42;;;;;;;17.42;5.63;;;22.70;69.20;;;;;;5093518;28;20039;-67
2022/07/15 03:41:49;;;;;;;11.80;4.88;;;22.70;69.50;;;;;;5093747;28;20051;-68
2022/07/15 03:44:53;;;;;;;9.90;5.63;;;22.60;69.70;;;;;;5093932;28;20110;-67
2022/07/15 03:47:58;;;;;;;12.45;5.68;;;22.60;69.90;;;;;;5093344;28;20062;-67
2022/07/15 03:51:03;;;;;;;20.45;6.30;;;22.60;70.40;;;;;;5081697;28;20051;-68
2022/07/15 03:54:07;;;;;;;16.17;6.30;;;22.60;70.40;;;;;;5094130;28;20047;-68
2022/07/15 03:57:11;;;;;;;15.27;5.75;;;22.60;70.90;;;;;;5094460;28;20471;-67
2022/07/15 04:00:15;;;;;;;15.00;5.88;;;22.40;71.70;;;;;;5093493;28;20046;-67
2022/07/15 04:03:19;;;;;;;23.23;6.32;;;22.40;72.20;;;;;;5093291;28;20035;-66
2022/07/15 04:06:24;;;;;;;19.25;6.45;;;22.50;72.20;;;;;;5093861;28;20051;-68
2022/07/15 04:09:28;;;;;;;19.80;7.38;;;22.50;72.00;;;;;;5093050;28;20062;-68
2022/07/15 04:12:32;;;;;;;16.17;6.50;;;22.60;71.40;;;;;;5093139;28;20085;-67
2022/07/15 04:15:36;;;;;;;18.70;7.05;;;22.80;71.10;;;;;;5093213;28;20050;-67
2022/07/15 04:18:41;;;;;;;23.75;8.23;;;22.90;70.70;;;;;;5092890;28;20046;-69
2022/07/15 04:21:46;;;;;;;16.70;6.72;;;22.90;70.20;;;;;;5093555;28;20085;-67
2022/07/15 04:24:50;;;;;;;12.10;8.02;;;23.00;70.70;;;;;;5092667;28;20043;-67
2022/07/15 04:27:55;;;;;;;21.33;8.40;;;23.10;70.30;;;;;;5092101;28;20055;-68
2022/07/15 04:31:06;;;;;;;23.33;9.20;;;23.10;70.40;;;;;;5092526;28;20031;-68
2022/07/15 04:34:20;;;;;;;14.93;7.45;;;23.00;70.80;;;;;;5092560;28;20494;-66
2022/07/15 04:37:25;;;;;;;15.70;8.00;;;23.10;70.30;;;;;;5080986;28;20067;-67
2022/07/15 04:40:32;;;;;;;24.58;15.25;;;23.10;69.90;;;;;;5092629;28;20047;-67
2022/07/15 04:43:39;;;;;;;45.35;26.48;;;23.00;70.20;;;;;;5093364;28;20038;-68
2022/07/15 04:46:43;;;;;;;34.13;19.20;;;23.20;69.50;;;;;;5093003;28;20063;-67
2022/07/15 04:53:27;;;;;;;42.05;22.52;;;24.20;67.50;;;;;;5092388;28;20043;-67
2022/07/15 04:56:31;;;;;;;28.65;14.82;;;24.90;65.40;;;;;;5080410;28;20043;-67
2022/07/15 04:59:41;;;;;;;21.45;13.32;;;25.40;63.70;;;;;;5080070;28;20498;-66
2022/07/15 05:02:50;;;;;;;26.58;13.00;;;26.20;62.80;;;;;;5092398;28;20047;-67
2022/07/15 05:05:55;;;;;;;18.48;9.52;;;26.50;62.20;;;;;;5092214;28;20046;-67
2022/07/15 05:09:07;;;;;;;16.58;8.30;;;26.70;61.80;;;;;;5091743;28;20051;-67
2022/07/15 05:12:12;;;;;;;22.85;7.60;;;26.70;61.10;;;;;;5091953;28;20038;-67
2022/07/15 05:15:31;;;;;;;15.93;7.90;;;26.50;61.00;;;;;;5091909;28;20111;-67
2022/07/15 05:18:45;;;;;;;26.40;8.77;;;26.20;62.20;;;;;;5091684;28;20546;-67
2022/07/15 05:21:53;;;;;;;13.32;7.88;;;26.30;62.80;;;;;;5091698;28;20035;-67
2022/07/15 05:24:58;;;;;;;26.05;8.63;;;26.50;62.30;;;;;;5091342;28;20503;-68
2022/07/15 05:28:02;;;;;;;25.17;9.10;;;26.70;62.40;;;;;;5091082;28;20063;-68
2022/07/15 05:31:07;;;;;;;31.25;9.98;;;26.70;61.90;;;;;;5091256;28;20404;-66
2022/07/15 05:34:12;;;;;;;23.35;8.45;;;26.80;62.20;;;;;;5091163;28;20070;-66
2022/07/15 05:37:15;;;;;;;16.33;7.45;;;27.00;62.30;;;;;;5091352;28;20051;-66
2022/07/15 05:40:21;;;;;;;16.55;7.35;;;26.90;62.00;;;;;;5091100;28;20047;-65
2022/07/15 05:43:29;;;;;;;17.10;7.63;;;26.90;61.80;;;;;;5091288;28;20035;-65
2022/07/15 05:46:33;;;;;;;17.08;7.72;;;27.10;61.90;;;;;;5091360;28;20423;-65
2022/07/15 05:49:41;;;;;;;21.90;6.72;;;27.40;60.60;;;;;;5090971;28;20051;-67
2022/07/15 05:52:45;;;;;;;17.58;7.10;;;27.50;60.80;;;;;;5090615;28;20039;-70
2022/07/15 05:55:52;;;;;;;20.67;6.43;;;27.70;60.00;;;;;;5091269;28;20044;-67
2022/07/15 05:58:57;;;;;;;34.60;6.93;;;27.90;60.20;;;;;;5090865;28;20043;-67
2022/07/15 06:02:06;;;;;;;43.03;11.95;;;28.40;58.70;;;;;;5091228;28;20046;-68
2022/07/15 06:05:14;;;;;;;23.55;8.98;;;28.60;58.40;;;;;;5089628;28;20054;-66
2022/07/15 06:08:22;;;;;;;26.27;8.77;;;28.70;57.70;;;;;;5077520;28;20055;-72
2022/07/15 06:11:26;;;;;;;19.10;8.85;;;28.80;58.70;;;;;;5090468;28;20055;-68
2022/07/15 06:14:30;;;;;;;1792.22;216.48;;;29.20;57.80;;;;;;5090673;28;20392;-66
2022/07/15 06:17:36;;;;;;;519.85;48.78;;;29.30;57.80;;;;;;5090678;28;20032;-68
2022/07/15 06:20:41;;;;;;;175.02;21.95;;;29.50;57.60;;;;;;5090322;28;20419;-67
2022/07/15 06:23:45;;;;;;;58.63;12.48;;;29.60;57.60;;;;;;5090069;28;20063;-65
2022/07/15 06:26:49;;;;;;;36.80;11.60;;;29.80;61.80;;;;;;5067029;28;20114;-64
2022/07/15 06:29:54;;;;;;;30.92;10.52;;;30.10;56.60;;;;;;5091190;28;20043;-65
2022/07/15 06:32:58;;;;;;;22.42;10.00;;;30.40;55.50;;;;;;5091442;28;20150;-66
2022/07/15 06:36:05;;;;;;;18.50;8.23;;;30.60;54.60;;;;;;5090255;28;20423;-64
2022/07/15 06:39:09;;;;;;;13.55;9.38;;;30.80;53.10;;;;;;5091135;28;20487;-65
2022/07/15 06:42:13;;;;;;;18.67;7.97;;;31.10;52.50;;;;;;5089600;28;20039;-65
2022/07/15 06:45:16;;;;;;;20.88;8.32;;;31.10;52.70;;;;;;5088229;28;20039;-64
2022/07/15 06:48:21;;;;;;;26.42;8.48;;;31.40;52.20;;;;;;5089363;28;20055;-64
2022/07/15 06:51:25;;;;;;;22.15;8.70;;;31.50;51.80;;;;;;5095909;28;20514;-64
2022/07/15 06:54:30;;;;;;;22.67;7.07;;;31.60;51.70;;;;;;5097117;28;20047;-66
2022/07/15 06:57:35;;;;;;;26.27;7.75;;;31.80;51.40;;;;;;5095967;28;20055;-65
2022/07/15 07:00:39;;;;;;;25.60;7.13;;;31.90;51.40;;;;;;5096937;28;20054;-64
2022/07/15 07:03:43;;;;;;;23.10;7.22;;;32.10;51.20;;;;;;5096669;28;20039;-65
2022/07/15 07:06:48;;;;;;;29.90;7.18;;;32.30;50.80;;;;;;5096907;28;20396;-67
2022/07/15 07:09:52;;;;;;;20.42;7.43;;;32.50;50.80;;;;;;5096938;28;20051;-67
2022/07/15 07:12:56;;;;;;;19.98;6.38;;;32.50;50.50;;;;;;5096648;28;20035;-63
2022/07/15 07:16:00;;;;;;;27.85;6.30;;;32.70;50.50;;;;;;5097396;28;20506;-66
2022/07/15 07:19:04;;;;;;;32.72;7.25;;;32.90;50.50;;;;;;5097496;28;20047;-65
2022/07/15 07:22:08;;;;;;;21.98;6.88;;;33.00;50.50;;;;;;5097863;28;20047;-66
2022/07/15 07:25:12;;;;;;;18.10;6.38;;;33.10;50.30;;;;;;5097584;28;20499;-65
2022/07/15 07:28:16;;;;;;;27.25;6.55;;;33.20;50.00;;;;;;5097230;28;20058;-66
2022/07/15 07:31:26;;;;;;;15.95;6.13;;;33.20;50.00;;;;;;5097583;28;20043;-67
2022/07/15 07:34:29;;;;;;;18.88;5.82;;;33.20;50.10;;;;;;5097463;28;20043;-66
2022/07/15 07:37:38;;;;;;;27.35;7.55;;;33.20;50.10;;;;;;5096901;28;20047;-66
2022/07/15 07:40:41;;;;;;;31.73;6.60;;;33.40;50.70;;;;;;5097379;28;20070;-66
2022/07/15 07:43:45;;;;;;;22.33;6.30;;;33.60;50.30;;;;;;5096633;28;20039;-65
2022/07/15 07:46:51;;;;;;;16.25;5.25;;;33.70;50.20;;;;;;5096854;28;20510;-66
2022/07/15 07:49:55;;;;;;;8.57;4.60;;;33.90;50.20;;;;;;5096898;28;20055;-67
2022/07/15 07:52:59;;;;;;;12.50;4.90;;;33.80;50.20;;;;;;5096105;28;20400;-65
2022/07/15 07:56:03;;;;;;;13.90;4.95;;;34.00;50.60;;;;;;5097014;28;20059;-66
2022/07/15 07:59:09;;;;;;;12.10;5.07;;;34.40;50.00;;;;;;5097072;28;20043;-66
2022/07/15 08:02:13;;;;;;;10.23;4.13;;;34.50;49.30;;;;;;5094027;28;20043;-67
2022/07/15 08:05:17;;;;;;;15.52;4.28;;;34.50;48.90;;;;;;5094125;28;20051;-65
2022/07/15 08:08:22;;;;;;;7.57;3.88;;;34.70;49.10;;;;;;5093729;28;20051;-67
2022/07/15 08:11:26;;;;;;;22.77;4.60;;;34.70;48.20;;;;;;5093924;28;20385;-65
2022/07/15 08:14:31;;;;;;;15.70;4.65;;;34.80;48.50;;;;;;5093636;28;20498;-66
2022/07/15 08:17:35;;;;;;;8.68;4.40;;;35.10;48.80;;;;;;5092736;28;20042;-66
2022/07/15 08:20:40;;;;;;;12.57;4.28;;;35.10;48.50;;;;;;5093430;28;20039;-66
2022/07/15 08:23:44;;;;;;;22.52;5.38;;;35.20;48.50;;;;;;5093116;28;20063;-67
2022/07/15 08:26:48;;;;;;;22.38;5.25;;;35.10;48.40;;;;;;5093273;28;20217;-66
2022/07/15 08:29:53;;;;;;;35.78;6.60;;;35.10;48.30;;;;;;5093384;28;20047;-65
2022/07/15 08:32:57;;;;;;;8.05;4.68;;;35.30;49.10;;;;;;5093285;28;20551;-68
2022/07/15 08:36:02;;;;;;;9.55;4.50;;;35.30;49.90;;;;;;5093531;28;20581;-66
2022/07/15 08:39:05;;;;;;;22.55;4.75;;;35.40;49.60;;;;;;5093532;28;20043;-67
2022/07/15 08:42:10;;;;;;;14.15;4.57;;;35.60;50.40;;;;;;5092395;28;20058;-67
2022/07/15 08:45:16;;;;;;;9.68;4.70;;;35.70;49.80;;;;;;5092393;28;20039;-67
2022/07/15 08:48:26;;;;;;;10.30;4.82;;;35.80;50.00;;;;;;5093056;28;20074;-66
2022/07/15 08:51:36;;;;;;;11.23;4.60;;;35.60;49.40;;;;;;5092808;28;20047;-66
2022/07/15 08:54:41;;;;;;;11.82;4.72;;;35.50;50.20;;;;;;5093076;28;20058;-68
2022/07/15 08:57:50;;;;;;;11.82;4.55;;;35.40;49.30;;;;;;5092804;28;20387;-68
2022/07/15 09:00:54;;;;;;;8.48;4.65;;;35.40;51.30;;;;;;5080425;28;20059;-66
2022/07/15 09:03:59;;;;;;;11.48;4.55;;;35.50;51.00;;;;;;5092570;28;20035;-66
2022/07/15 09:07:03;;;;;;;11.85;4.35;;;35.50;51.40;;;;;;5092413;28;20387;-66
2022/07/15 09:10:07;;;;;;;10.88;3.95;;;35.50;50.70;;;;;;5092778;28;20051;-66
2022/07/15 09:13:22;;;;;;;13.70;4.63;;;35.30;50.50;;;;;;5091459;28;20055;-65
2022/07/15 09:16:26;;;;;;;8.25;4.57;;;35.10;50.90;;;;;;5092398;28;20409;-66
2022/07/15 09:19:56;;;;;;;9.07;4.07;;;35.10;51.40;;;;;;5092342;28;20530;-66
2022/07/15 09:23:00;;;;;;;11.15;4.53;;;35.20;52.00;;;;;;5092646;28;20043;-67
2022/07/15 09:26:28;;;;;;;7.50;4.25;;;35.20;51.00;;;;;;5092374;28;20041;-67
2022/07/15 09:36:25;;;;;;;11.30;4.75;;;35.10;52.10;;;;;;5091914;28;20058;-67
2022/07/15 09:43:05;;;;;;;5.18;3.60;;;35.30;53.40;;;;;;5091709;28;20043;-67
2022/07/15 09:46:10;;;;;;;16.73;5.65;;;35.40;53.10;;;;;;5092047;28;20039;-64
2022/07/15 09:49:32;;;;;;;10.05;3.70;;;35.30;52.30;;;;;;5091522;28;20051;-63
2022/07/15 09:52:47;;;;;;;10.98;4.00;;;35.10;52.30;;;;;;5092005;28;20051;-64
2022/07/15 09:55:51;;;;;;;13.55;3.97;;;35.00;53.00;;;;;;5091885;28;20043;-64
2022/07/15 09:58:55;;;;;;;7.40;4.32;;;35.20;52.90;;;;;;5089455;28;20039;-66
2022/07/15 10:02:00;;;;;;;17.20;3.80;;;35.20;52.70;;;;;;5090377;28;20043;-66
2022/07/15 10:05:04;;;;;;;11.73;4.20;;;35.10;52.50;;;;;;5091313;28;20622;-66
2022/07/15 10:08:10;;;;;;;10.80;3.85;;;35.10;52.60;;;;;;5091391;28;20043;-68
2022/07/15 10:11:16;;;;;;;9.27;3.63;;;35.10;51.80;;;;;;5091380;28;20031;-65
2022/07/15 10:14:51;;;;;;;12.88;3.83;;;35.10;52.40;;;;;;5090429;28;20035;-65
2022/07/15 10:18:14;;;;;;;10.35;3.60;;;35.10;52.40;;;;;;5091496;28;20039;-64
2022/07/15 10:21:24;;;;;;;7.20;3.75;;;35.10;52.10;;;;;;5090958;28;20110;-67
2022/07/15 10:25:00;;;;;;;9.90;3.78;;;35.10;52.70;;;;;;5090074;28;20070;-66
2022/07/15 10:28:13;;;;;;;11.48;3.67;;;35.10;53.30;;;;;;5091092;28;20051;-64
2022/07/15 10:31:20;;;;;;;5.68;3.50;;;35.10;54.20;;;;;;5090354;28;20396;-64
2022/07/15 10:34:33;;;;;;;17.17;3.70;;;35.00;54.20;;;;;;5091277;28;20043;-65
2022/07/15 10:37:36;;;;;;;8.00;4.15;;;34.90;55.20;;;;;;5091301;28;20039;-67
2022/07/15 10:40:57;;;;;;;7.65;3.90;;;34.90;55.60;;;;;;5091396;28;20047;-65
2022/07/15 10:44:09;;;;;;;;;;;34.90;54.80;;;;;;5091685;28;20051;-65
2022/07/15 10:47:13;;;;;;;108.82;11.00;;;34.90;55.00;;;;;;5091199;28;20383;-65
2022/07/15 10:50:40;;;;;;;10.30;3.70;;;34.80;55.10;;;;;;5090989;28;20063;-66
2022/07/15 10:53:46;;;;;;;9.10;3.85;;;34.80;54.80;;;;;;5091330;28;20055;-66
2022/07/15 10:56:51;;;;;;;5.72;3.67;;;34.70;55.30;;;;;;5091078;28;20047;-64
2022/07/15 10:59:56;;;;;;;12.43;4.13;;;34.70;55.40;;;;;;5090161;28;20043;-64
2022/07/15 11:03:13;;;;;;;8.25;3.33;;;34.50;55.10;;;;;;5090755;28;20392;-64
2022/07/15 11:06:18;;;;;;;5.90;3.22;;;34.50;54.80;;;;;;5090905;28;20047;-64
2022/07/15 11:09:54;;;;;;;7.55;3.65;;;34.40;54.40;;;;;;5090747;28;20051;-64
2022/07/15 11:13:01;;;;;;;9.05;3.42;;;34.40;54.10;;;;;;5089911;28;20138;-65
2022/07/15 11:16:06;;;;;;;8.40;4.97;;;34.30;54.50;;;;;;5090898;28;20059;-65
2022/07/15 11:19:11;;;;;;;3.75;3.10;;;34.30;54.20;;;;;;5091019;28;20043;-64
2022/07/15 11:22:17;;;;;;;7.88;3.92;;;34.20;54.10;;;;;;5089610;28;20051;-66
2022/07/15 11:25:21;;;;;;;9.38;4.18;;;34.20;55.30;;;;;;5091009;28;20502;-64
2022/07/15 11:28:25;;;;;;;7.85;3.17;;;34.10;55.90;;;;;;5089634;28;20059;-63
2022/07/15 11:31:40;;;;;;;10.95;3.72;;;34.00;56.20;;;;;;5090382;28;20090;-63
2022/07/15 11:34:47;;;;;;;8.18;2.97;;;34.00;56.70;;;;;;5090755;28;20047;-64
2022/07/15 11:38:04;;;;;;;8.95;3.50;;;33.90;56.30;;;;;;5093650;28;20506;-64
2022/07/15 11:44:30;;;;;;;10.88;3.47;;;33.70;56.30;;;;;;5094552;28;20114;-64
2022/07/15 11:47:34;;;;;;;8.40;3.17;;;33.60;56.00;;;;;;5094360;28;20043;-64
2022/07/15 11:50:52;;;;;;;8.52;3.10;;;33.60;55.70;;;;;;5094044;28;20051;-64
2022/07/15 11:53:57;;;;;;;10.05;3.72;;;33.60;56.30;;;;;;5093314;28;20043;-63
2022/07/15 11:57:05;;;;;;;5.13;2.67;;;33.60;56.70;;;;;;5093990;28;20408;-63
2022/07/15 12:00:10;;;;;;;7.35;3.60;;;33.60;57.60;;;;;;5094020;28;20047;-64
2022/07/15 12:03:17;;;;;;;10.00;2.88;;;33.50;57.50;;;;;;5094253;28;20043;-65
2022/07/15 12:06:32;;;;;;;9.20;3.05;;;33.40;57.30;;;;;;5094224;28;20073;-66
2022/07/15 12:09:48;;;;;;;9.48;3.55;;;33.40;57.80;;;;;;5093705;28;20063;-65
2022/07/15 12:12:56;;;;;;;10.15;4.80;;;33.40;58.70;;;;;;5094201;28;20047;-64
2022/07/15 12:16:01;;;;;;;11.20;4.78;;;33.40;58.30;;;;;;5093817;28;20043;-64
2022/07/15 12:19:07;;;;;;;16.55;6.93;;;33.40;58.80;;;;;;5093621;28;20039;-64
2022/07/15 12:22:12;;;;;;;19.40;9.20;;;33.40;59.60;;;;;;5092864;28;20423;-64
2022/07/15 12:25:20;;;;;;;12.38;6.53;;;33.40;59.30;;;;;;5093028;28;20047;-64
2022/07/15 12:28:32;;;;;;;22.40;13.43;;;33.40;59.30;;;;;;5092491;28;20044;-64
2022/07/15 12:31:38;;;;;;;16.00;10.25;;;33.40;59.00;;;;;;5092870;28;20039;-65
2022/07/15 12:34:59;;;;;;;33.15;24.50;;;33.30;60.90;;;;;;5093715;28;20043;-66
2022/07/15 12:38:04;;;;;;;23.85;15.32;;;33.60;61.20;;;;;;5093525;28;20062;-67
2022/07/15 12:41:24;;;;;;;22.00;13.63;;;34.20;60.20;;;;;;5093447;28;20048;-66
2022/07/15 12:44:30;;;;;;;;;;;34.90;58.50;;;;;;5093674;28;20133;-66
2022/07/15 12:47:36;;;;;;;13.98;7.18;;;35.20;57.40;;;;;;5092666;28;19930;-66
2022/07/15 12:50:51;;;;;;;31.50;19.52;;;35.80;57.30;;;;;;5092988;28;20074;-67
2022/07/15 12:54:04;;;;;;;17.05;11.50;;;35.90;57.40;;;;;;5093096;28;20051;-64
2022/07/15 12:57:29;;;;;;;18.67;12.48;;;35.90;57.00;;;;;;5092971;28;20043;-64
2022/07/15 13:00:33;;;;;;;11.45;6.30;;;36.00;57.00;;;;;;5093083;28;20055;-64
2022/07/15 13:03:37;;;;;;;10.85;7.78;;;35.90;57.10;;;;;;5092703;28;20043;-65
2022/07/15 13:06:41;;;;;;;32.72;13.77;;;35.90;56.60;;;;;;5092657;28;20047;-64
2022/07/15 13:09:46;;;;;;;29.08;13.32;;;35.70;56.40;;;;;;5091937;28;20046;-66
2022/07/15 13:12:50;;;;;;;21.85;8.30;;;35.50;57.00;;;;;;5092907;28;20043;-65
2022/07/15 13:15:54;;;;;;;11.05;6.63;;;34.90;57.80;;;;;;5092219;28;20043;-64
2022/07/15 13:18:58;;;;;;;11.38;6.00;;;34.50;56.50;;;;;;5090670;28;20043;-64
2022/07/15 13:22:02;;;;;;;16.52;5.65;;;34.10;57.60;;;;;;5091005;28;20051;-65
2022/07/15 13:25:07;;;;;;;15.23;6.82;;;33.90;58.50;;;;;;5091785;28;20055;-65
2022/07/15 13:28:13;;;;;;;10.10;3.90;;;33.70;57.00;;;;;;5091937;28;20047;-64
2022/07/15 13:31:16;;;;;;;13.77;3.58;;;33.60;59.90;;;;;;5092048;28;20035;-64
2022/07/15 13:34:20;;;;;;;10.55;4.47;;;33.50;59.70;;;;;;5092435;28;20054;-66
2022/07/15 13:37:25;;;;;;;17.10;3.83;;;33.30;59.60;;;;;;5092350;28;20502;-65
2022/07/15 13:40:29;;;;;;;12.65;4.22;;;33.20;60.00;;;;;;5092329;28;20518;-65
2022/07/15 13:43:33;;;;;;;10.98;3.22;;;33.10;60.00;;;;;;5092229;28;20047;-65
2022/07/15 13:46:37;;;;;;;6.13;3.45;;;33.00;59.50;;;;;;5092538;28;20039;-64
2022/07/15 13:53:04;;;;;;;7.82;3.63;;;33.60;60.60;;;;;;5091873;28;20400;-65
2022/07/15 13:56:08;;;;;;;5.82;2.97;;;34.60;59.20;;;;;;5091191;28;20062;-65
2022/07/15 13:59:12;;;;;;;11.23;3.03;;;35.10;57.70;;;;;;5091257;28;20043;-64
2022/07/15 14:02:16;;;;;;;11.98;3.42;;;35.20;58.00;;;;;;5092005;28;20051;-65
2022/07/15 14:05:21;;;;;;;13.98;3.88;;;35.50;57.70;;;;;;5091609;28;20047;-64
2022/07/15 14:08:25;;;;;;;11.15;3.20;;;35.40;57.80;;;;;;5091701;28;20050;-63
2022/07/15 14:11:30;;;;;;;11.57;3.25;;;35.30;57.60;;;;;;5091835;28;20070;-65
2022/07/15 14:14:34;;;;;;;9.23;3.17;;;35.10;56.40;;;;;;5091578;28;20043;-65
2022/07/15 14:17:38;;;;;;;8.20;4.28;;;35.10;58.60;;;;;;5091316;28;20062;-66
2022/07/15 14:20:45;;;;;;;12.88;3.10;;;35.30;57.30;;;;;;5090408;28;20217;-65
2022/07/15 14:23:50;;;;;;;14.23;3.65;;;35.00;56.90;;;;;;5091459;28;20063;-65
2022/07/15 14:26:54;;;;;;;14.55;3.20;;;35.10;57.10;;;;;;5091134;28;20042;-63
2022/07/15 14:29:58;;;;;;;10.85;3.28;;;35.20;57.50;;;;;;5091023;28;20047;-63
2022/07/15 14:33:02;;;;;;;9.07;3.20;;;35.10;59.00;;;;;;5091385;28;20035;-64
2022/07/15 14:36:11;;;;;;;12.43;3.22;;;35.20;58.00;;;;;;5090524;28;20067;-63
2022/07/15 14:39:14;;;;;;;13.68;4.05;;;35.10;58.20;;;;;;5091211;28;20035;-64
2022/07/15 14:42:18;;;;;;;14.13;3.80;;;35.20;59.60;;;;;;5091220;28;20043;-66
2022/07/15 14:45:22;;;;;;;38.30;6.15;;;35.00;56.30;;;;;;5091304;28;20533;-62
2022/07/15 14:48:27;;;;;;;9.15;3.63;;;34.70;58.90;;;;;;5090750;28;20046;-63
2022/07/15 14:51:31;;;;;;;12.85;3.70;;;34.30;60.50;;;;;;5090847;28;20055;-64
2022/07/15 14:54:35;;;;;;;7.25;3.30;;;33.80;62.80;;;;;;5090912;28;20089;-65
2022/07/15 14:57:39;;;;;;;10.65;3.50;;;33.40;62.10;;;;;;5091058;28;20047;-64
2022/07/15 15:00:43;;;;;;;13.55;4.43;;;33.20;62.30;;;;;;5090964;28;20059;-64
2022/07/15 15:03:47;;;;;;;8.15;3.20;;;33.20;62.50;;;;;;5091047;28;20047;-64
2022/07/15 15:06:51;;;;;;;11.93;3.45;;;33.30;62.20;;;;;;5090637;28;20073;-64
2022/07/15 15:09:55;;;;;;;8.00;2.95;;;33.20;63.00;;;;;;5090071;28;20059;-64
2022/07/15 15:12:59;;;;;;;9.02;2.88;;;33.00;61.90;;;;;;5094806;28;20035;-63
2022/07/15 15:16:04;;;;;;;7.60;3.13;;;33.00;63.20;;;;;;5094707;28;20054;-63
2022/07/15 15:19:08;;;;;;;15.15;3.42;;;32.90;64.10;;;;;;5095030;28;20047;-65
2022/07/15 15:22:12;;;;;;;8.80;3.20;;;32.80;61.70;;;;;;5095198;28;20039;-64
2022/07/15 15:26:20;;;;;;;10.02;4.03;;;32.70;60.70;;;;;;5094832;28;20039;-64
2022/07/15 15:28:41;;;;;;;8.05;3.30;;;32.70;60.80;;;;;;5094455;28;20043;-67
2022/07/15 15:31:45;;;;;;;8.57;3.67;;;32.70;62.30;;;;;;5094927;28;20506;-66
2022/07/15 15:34:49;;;;;;;13.25;3.45;;;32.60;62.50;;;;;;5093647;28;20035;-66
2022/07/15 15:37:53;;;;;;;14.98;3.10;;;32.50;62.00;;;;;;5094646;28;20059;-66
2022/07/15 15:40:57;;;;;;;6.22;3.40;;;32.50;62.30;;;;;;5094375;28;20507;-64
2022/07/15 15:44:02;;;;;;;4.38;2.90;;;32.40;61.90;;;;;;5094192;28;20047;-65
2022/07/15 15:47:07;;;;;;;7.20;3.05;;;32.40;61.00;;;;;;5094011;28;20047;-67
2022/07/15 15:50:11;;;;;;;9.93;3.35;;;32.30;60.40;;;;;;5094077;28;20063;-65
2022/07/15 15:53:15;;;;;;;8.48;2.90;;;32.30;58.10;;;;;;5094409;28;20503;-65
2022/07/15 15:56:19;;;;;;;5.80;3.42;;;32.20;59.10;;;;;;5093840;28;20063;-67
2022/07/15 15:59:23;;;;;;;8.45;3.22;;;32.20;59.00;;;;;;5093716;28;20047;-63
2022/07/15 16:02:27;;;;;;;7.38;3.25;;;32.20;58.90;;;;;;5092899;28;20055;-64
2022/07/15 16:05:31;;;;;;;4.38;2.58;;;32.10;57.90;;;;;;5092688;28;20042;-64
2022/07/15 16:08:35;;;;;;;7.72;3.30;;;32.10;58.90;;;;;;5092804;28;20055;-63
2022/07/15 16:11:40;;;;;;;5.10;2.90;;;32.10;58.70;;;;;;5093846;28;20241;-67
2022/07/15 16:14:44;;;;;;;7.05;2.92;;;32.10;60.10;;;;;;5093911;28;20047;-62
2022/07/15 16:17:48;;;;;;;4.97;3.20;;;32.10;60.80;;;;;;5093598;28;20047;-65
2022/07/15 16:20:52;;;;;;;12.98;3.60;;;32.10;61.00;;;;;;5092484;28;20058;-67
2022/07/15 16:23:56;;;;;;;7.30;2.80;;;32.00;60.90;;;;;;5092061;28;20046;-66
2022/07/15 16:27:00;;;;;;;11.23;2.80;;;32.00;61.70;;;;;;5092750;28;20043;-66